sensor_id;sensor_type;location;lat;lon;timestamp;P1;durP1;ratioP1;P2;durP2;ratioP2
31764;SDS011;18338;53.240;8.798;2023-12-04T00:00:27;66.90;;;28.90;;
31764;SDS011;18338;53.240;8.798;2023-12-04T00:02:54;64.00;;;28.03;;
31764;SDS011;18338;53.240;8.798;2023-12-04T00:05:21;59.43;;;27.33;;
31764;SDS011;18338;53.240;8.798;2023-12-04T00:07:48;61.03;;;28.53;;
31764;SDS011;18338;53.240;8.798;2023-12-04T00:10:14;63.37;;;27.50;;
31764;SDS011;18338;53.240;8.798;2023-12-04T00:12:41;57.87;;;26.70;;
31764;SDS011;18338;53.240;8.798;2023-12-04T00:15:08;57.40;;;25.87;;
31764;SDS011;18338;53.240;8.798;2023-12-04T00:17:36;51.20;;;26.23;;
31764;SDS011;18338;53.240;8.798;2023-12-04T00:20:07;56.17;;;26.07;;
31764;SDS011;18338;53.240;8.798;2023-12-04T00:22:35;55.33;;;26.60;;
31764;SDS011;18338;53.240;8.798;2023-12-04T00:25:03;56.47;;;25.83;;
31764;SDS011;18338;53.240;8.798;2023-12-04T00:27:31;56.03;;;25.93;;
31764;SDS011;18338;53.240;8.798;2023-12-04T00:29:57;56.37;;;26.17;;
31764;SDS011;18338;53.240;8.798;2023-12-04T00:32:24;56.37;;;24.67;;
31764;SDS011;18338;53.240;8.798;2023-12-04T00:34:52;58.57;;;26.00;;
31764;SDS011;18338;53.240;8.798;2023-12-04T00:37:19;50.17;;;24.33;;
31764;SDS011;18338;53.240;8.798;2023-12-04T00:39:45;52.93;;;25.37;;
31764;SDS011;18338;53.240;8.798;2023-12-04T00:42:12;55.50;;;24.77;;
31764;SDS011;18338;53.240;8.798;2023-12-04T00:44:39;53.93;;;26.37;;
31764;SDS011;18338;53.240;8.798;2023-12-04T00:47:05;54.37;;;24.97;;
31764;SDS011;18338;53.240;8.798;2023-12-04T00:49:32;52.57;;;24.33;;
31764;SDS011;18338;53.240;8.798;2023-12-04T00:52:00;55.83;;;24.67;;
31764;SDS011;18338;53.240;8.798;2023-12-04T00:54:26;50.00;;;23.93;;
31764;SDS011;18338;53.240;8.798;2023-12-04T00:56:53;49.27;;;24.17;;
31764;SDS011;18338;53.240;8.798;2023-12-04T00:59:20;47.73;;;25.17;;
31764;SDS011;18338;53.240;8.798;2023-12-04T01:01:47;50.43;;;23.63;;
31764;SDS011;18338;53.240;8.798;2023-12-04T01:04:13;51.47;;;24.53;;
31764;SDS011;18338;53.240;8.798;2023-12-04T01:06:40;49.53;;;23.40;;
31764;SDS011;18338;53.240;8.798;2023-12-04T01:09:07;47.97;;;23.70;;
31764;SDS011;18338;53.240;8.798;2023-12-04T01:11:34;47.43;;;22.37;;
31764;SDS011;18338;53.240;8.798;2023-12-04T01:14:02;44.53;;;23.13;;
31764;SDS011;18338;53.240;8.798;2023-12-04T01:16:30;48.17;;;23.57;;
31764;SDS011;18338;53.240;8.798;2023-12-04T01:18:58;46.27;;;23.47;;
31764;SDS011;18338;53.240;8.798;2023-12-04T01:21:25;42.47;;;21.93;;
31764;SDS011;18338;53.240;8.798;2023-12-04T01:23:52;48.07;;;22.53;;
31764;SDS011;18338;53.240;8.798;2023-12-04T01:26:19;46.70;;;23.43;;
31764;SDS011;18338;53.240;8.798;2023-12-04T01:28:45;46.87;;;23.13;;
31764;SDS011;18338;53.240;8.798;2023-12-04T01:31:12;40.70;;;22.13;;
31764;SDS011;18338;53.240;8.798;2023-12-04T01:33:39;41.93;;;21.97;;
31764;SDS011;18338;53.240;8.798;2023-12-04T01:36:05;39.27;;;21.10;;
31764;SDS011;18338;53.240;8.798;2023-12-04T01:38:32;40.70;;;20.70;;
31764;SDS011;18338;53.240;8.798;2023-12-04T01:41:00;41.27;;;20.70;;
31764;SDS011;18338;53.240;8.798;2023-12-04T01:43:26;40.53;;;20.87;;
31764;SDS011;18338;53.240;8.798;2023-12-04T01:45:54;40.53;;;21.27;;
31764;SDS011;18338;53.240;8.798;2023-12-04T01:48:22;40.27;;;19.83;;
31764;SDS011;18338;53.240;8.798;2023-12-04T01:50:50;38.90;;;20.90;;
31764;SDS011;18338;53.240;8.798;2023-12-04T01:53:18;35.43;;;19.30;;
31764;SDS011;18338;53.240;8.798;2023-12-04T01:55:45;35.63;;;19.83;;
31764;SDS011;18338;53.240;8.798;2023-12-04T01:58:12;35.47;;;18.83;;
31764;SDS011;18338;53.240;8.798;2023-12-04T02:00:39;38.63;;;19.97;;
31764;SDS011;18338;53.240;8.798;2023-12-04T02:03:06;34.57;;;19.67;;
31764;SDS011;18338;53.240;8.798;2023-12-04T02:05:34;32.17;;;18.33;;
31764;SDS011;18338;53.240;8.798;2023-12-04T02:08:02;34.53;;;19.43;;
31764;SDS011;18338;53.240;8.798;2023-12-04T02:10:29;32.60;;;18.67;;
31764;SDS011;18338;53.240;8.798;2023-12-04T02:12:56;33.27;;;18.20;;
31764;SDS011;18338;53.240;8.798;2023-12-04T02:15:23;33.93;;;17.90;;
31764;SDS011;18338;53.240;8.798;2023-12-04T02:17:50;34.20;;;18.87;;
31764;SDS011;18338;53.240;8.798;2023-12-04T02:20:17;29.67;;;17.27;;
31764;SDS011;18338;53.240;8.798;2023-12-04T02:22:43;31.73;;;16.87;;
31764;SDS011;18338;53.240;8.798;2023-12-04T02:25:10;29.73;;;18.03;;
31764;SDS011;18338;53.240;8.798;2023-12-04T02:27:56;29.70;;;16.80;;
31764;SDS011;18338;53.240;8.798;2023-12-04T02:30:26;29.23;;;16.70;;
31764;SDS011;18338;53.240;8.798;2023-12-04T02:32:58;28.57;;;16.57;;
31764;SDS011;18338;53.240;8.798;2023-12-04T02:35:29;26.27;;;15.03;;
31764;SDS011;18338;53.240;8.798;2023-12-04T02:37:59;28.03;;;16.20;;
31764;SDS011;18338;53.240;8.798;2023-12-04T02:40:27;26.00;;;15.23;;
31764;SDS011;18338;53.240;8.798;2023-12-04T02:42:54;31.47;;;16.77;;
31764;SDS011;18338;53.240;8.798;2023-12-04T02:45:21;27.67;;;16.77;;
31764;SDS011;18338;53.240;8.798;2023-12-04T02:47:47;26.83;;;16.23;;
31764;SDS011;18338;53.240;8.798;2023-12-04T02:50:14;27.23;;;15.43;;
31764;SDS011;18338;53.240;8.798;2023-12-04T02:52:41;23.73;;;14.53;;
31764;SDS011;18338;53.240;8.798;2023-12-04T02:55:08;24.83;;;15.17;;
31764;SDS011;18338;53.240;8.798;2023-12-04T02:57:34;26.80;;;15.50;;
31764;SDS011;18338;53.240;8.798;2023-12-04T03:00:01;22.90;;;14.57;;
31764;SDS011;18338;53.240;8.798;2023-12-04T03:02:29;25.83;;;14.80;;
31764;SDS011;18338;53.240;8.798;2023-12-04T03:04:56;23.00;;;14.10;;
31764;SDS011;18338;53.240;8.798;2023-12-04T03:07:22;23.87;;;13.60;;
31764;SDS011;18338;53.240;8.798;2023-12-04T03:09:50;23.50;;;13.83;;
31764;SDS011;18338;53.240;8.798;2023-12-04T03:12:17;23.47;;;14.10;;
31764;SDS011;18338;53.240;8.798;2023-12-04T03:14:44;21.97;;;14.10;;
31764;SDS011;18338;53.240;8.798;2023-12-04T03:17:10;23.77;;;14.43;;
31764;SDS011;18338;53.240;8.798;2023-12-04T03:19:37;22.67;;;14.60;;
31764;SDS011;18338;53.240;8.798;2023-12-04T03:22:04;20.57;;;13.43;;
31764;SDS011;18338;53.240;8.798;2023-12-04T03:24:30;23.87;;;14.30;;
31764;SDS011;18338;53.240;8.798;2023-12-04T03:26:57;21.33;;;13.03;;
31764;SDS011;18338;53.240;8.798;2023-12-04T03:29:24;22.80;;;13.77;;
31764;SDS011;18338;53.240;8.798;2023-12-04T03:31:50;22.43;;;13.70;;
31764;SDS011;18338;53.240;8.798;2023-12-04T03:34:17;23.70;;;14.43;;
31764;SDS011;18338;53.240;8.798;2023-12-04T03:36:44;22.13;;;13.50;;
31764;SDS011;18338;53.240;8.798;2023-12-04T03:39:10;22.53;;;13.37;;
31764;SDS011;18338;53.240;8.798;2023-12-04T03:41:37;22.33;;;13.50;;
31764;SDS011;18338;53.240;8.798;2023-12-04T03:44:04;25.33;;;14.40;;
31764;SDS011;18338;53.240;8.798;2023-12-04T03:46:30;21.50;;;13.87;;
31764;SDS011;18338;53.240;8.798;2023-12-04T03:48:57;24.30;;;14.20;;
31764;SDS011;18338;53.240;8.798;2023-12-04T03:51:24;24.20;;;14.43;;
31764;SDS011;18338;53.240;8.798;2023-12-04T03:53:51;23.97;;;14.47;;
31764;SDS011;18338;53.240;8.798;2023-12-04T03:56:17;21.67;;;13.53;;
31764;SDS011;18338;53.240;8.798;2023-12-04T03:58:44;22.77;;;13.30;;
31764;SDS011;18338;53.240;8.798;2023-12-04T04:01:10;21.73;;;14.60;;
31764;SDS011;18338;53.240;8.798;2023-12-04T04:03:37;21.77;;;13.63;;
31764;SDS011;18338;53.240;8.798;2023-12-04T04:06:06;22.57;;;13.63;;
31764;SDS011;18338;53.240;8.798;2023-12-04T04:08:32;23.00;;;12.73;;
31764;SDS011;18338;53.240;8.798;2023-12-04T04:10:59;23.10;;;12.97;;
31764;SDS011;18338;53.240;8.798;2023-12-04T04:13:26;22.53;;;14.20;;
31764;SDS011;18338;53.240;8.798;2023-12-04T04:15:53;23.77;;;13.63;;
31764;SDS011;18338;53.240;8.798;2023-12-04T04:18:19;23.30;;;13.00;;
31764;SDS011;18338;53.240;8.798;2023-12-04T04:20:46;22.73;;;13.70;;
31764;SDS011;18338;53.240;8.798;2023-12-04T04:23:13;22.43;;;12.93;;
31764;SDS011;18338;53.240;8.798;2023-12-04T04:25:39;23.30;;;14.17;;
31764;SDS011;18338;53.240;8.798;2023-12-04T04:28:06;21.47;;;13.00;;
31764;SDS011;18338;53.240;8.798;2023-12-04T04:30:33;19.70;;;13.40;;
31764;SDS011;18338;53.240;8.798;2023-12-04T04:33:00;20.87;;;12.83;;
31764;SDS011;18338;53.240;8.798;2023-12-04T04:35:27;21.30;;;12.70;;
31764;SDS011;18338;53.240;8.798;2023-12-04T04:37:54;23.77;;;13.53;;
31764;SDS011;18338;53.240;8.798;2023-12-04T04:40:21;20.33;;;12.70;;
31764;SDS011;18338;53.240;8.798;2023-12-04T04:42:47;22.07;;;12.93;;
31764;SDS011;18338;53.240;8.798;2023-12-04T04:45:14;24.43;;;13.53;;
31764;SDS011;18338;53.240;8.798;2023-12-04T04:47:41;23.67;;;13.57;;
31764;SDS011;18338;53.240;8.798;2023-12-04T04:50:07;23.70;;;13.30;;
31764;SDS011;18338;53.240;8.798;2023-12-04T04:52:34;22.93;;;12.47;;
31764;SDS011;18338;53.240;8.798;2023-12-04T04:55:01;23.73;;;13.03;;
31764;SDS011;18338;53.240;8.798;2023-12-04T04:57:28;23.23;;;13.83;;
31764;SDS011;18338;53.240;8.798;2023-12-04T04:59:54;21.50;;;12.67;;
31764;SDS011;18338;53.240;8.798;2023-12-04T05:02:21;21.77;;;12.97;;
31764;SDS011;18338;53.240;8.798;2023-12-04T05:04:47;19.60;;;13.17;;
31764;SDS011;18338;53.240;8.798;2023-12-04T05:07:14;23.10;;;13.17;;
31764;SDS011;18338;53.240;8.798;2023-12-04T05:09:41;21.37;;;13.33;;
31764;SDS011;18338;53.240;8.798;2023-12-04T05:12:08;22.37;;;12.90;;
31764;SDS011;18338;53.240;8.798;2023-12-04T05:14:35;21.50;;;12.17;;
31764;SDS011;18338;53.240;8.798;2023-12-04T05:17:01;23.27;;;14.50;;
31764;SDS011;18338;53.240;8.798;2023-12-04T05:19:28;21.63;;;12.93;;
31764;SDS011;18338;53.240;8.798;2023-12-04T05:21:55;20.47;;;12.97;;
31764;SDS011;18338;53.240;8.798;2023-12-04T05:24:21;24.07;;;13.83;;
31764;SDS011;18338;53.240;8.798;2023-12-04T05:26:48;23.67;;;13.20;;
31764;SDS011;18338;53.240;8.798;2023-12-04T05:29:15;22.17;;;13.00;;
31764;SDS011;18338;53.240;8.798;2023-12-04T05:31:41;21.47;;;12.80;;
31764;SDS011;18338;53.240;8.798;2023-12-04T05:34:08;21.13;;;13.37;;
31764;SDS011;18338;53.240;8.798;2023-12-04T05:36:35;22.70;;;13.80;;
31764;SDS011;18338;53.240;8.798;2023-12-04T05:39:01;22.20;;;13.33;;
31764;SDS011;18338;53.240;8.798;2023-12-04T05:41:30;20.33;;;12.63;;
31764;SDS011;18338;53.240;8.798;2023-12-04T05:43:57;23.50;;;13.00;;
31764;SDS011;18338;53.240;8.798;2023-12-04T05:46:24;23.30;;;12.73;;
31764;SDS011;18338;53.240;8.798;2023-12-04T05:48:51;22.37;;;12.60;;
31764;SDS011;18338;53.240;8.798;2023-12-04T05:51:18;24.80;;;14.17;;
31764;SDS011;18338;53.240;8.798;2023-12-04T05:53:44;22.60;;;13.63;;
31764;SDS011;18338;53.240;8.798;2023-12-04T05:56:11;23.87;;;12.93;;
31764;SDS011;18338;53.240;8.798;2023-12-04T05:58:38;23.97;;;13.53;;
31764;SDS011;18338;53.240;8.798;2023-12-04T06:01:04;23.27;;;13.70;;
31764;SDS011;18338;53.240;8.798;2023-12-04T06:03:32;24.57;;;14.00;;
31764;SDS011;18338;53.240;8.798;2023-12-04T06:05:59;21.60;;;13.40;;
31764;SDS011;18338;53.240;8.798;2023-12-04T06:08:30;23.40;;;13.23;;
31764;SDS011;18338;53.240;8.798;2023-12-04T06:10:56;21.93;;;12.40;;
31764;SDS011;18338;53.240;8.798;2023-12-04T06:13:24;22.13;;;12.60;;
31764;SDS011;18338;53.240;8.798;2023-12-04T06:15:50;21.30;;;12.97;;
31764;SDS011;18338;53.240;8.798;2023-12-04T06:18:17;22.17;;;13.50;;
31764;SDS011;18338;53.240;8.798;2023-12-04T06:20:44;21.77;;;13.03;;
31764;SDS011;18338;53.240;8.798;2023-12-04T06:23:11;23.50;;;13.27;;
31764;SDS011;18338;53.240;8.798;2023-12-04T06:25:38;22.23;;;13.57;;
31764;SDS011;18338;53.240;8.798;2023-12-04T06:28:05;21.77;;;12.93;;
31764;SDS011;18338;53.240;8.798;2023-12-04T06:30:32;23.10;;;13.70;;
31764;SDS011;18338;53.240;8.798;2023-12-04T06:32:59;24.00;;;13.53;;
31764;SDS011;18338;53.240;8.798;2023-12-04T06:35:26;22.60;;;13.13;;
31764;SDS011;18338;53.240;8.798;2023-12-04T06:37:53;20.80;;;13.03;;
31764;SDS011;18338;53.240;8.798;2023-12-04T06:40:21;25.03;;;13.20;;
31764;SDS011;18338;53.240;8.798;2023-12-04T06:42:49;21.30;;;12.63;;
31764;SDS011;18338;53.240;8.798;2023-12-04T06:45:16;21.23;;;13.40;;
31764;SDS011;18338;53.240;8.798;2023-12-04T06:47:43;21.53;;;13.10;;
31764;SDS011;18338;53.240;8.798;2023-12-04T06:50:15;21.70;;;13.50;;
31764;SDS011;18338;53.240;8.798;2023-12-04T06:52:42;21.07;;;12.90;;
31764;SDS011;18338;53.240;8.798;2023-12-04T06:55:09;22.97;;;12.90;;
31764;SDS011;18338;53.240;8.798;2023-12-04T06:57:39;22.50;;;13.47;;
31764;SDS011;18338;53.240;8.798;2023-12-04T07:00:06;22.63;;;13.03;;
31764;SDS011;18338;53.240;8.798;2023-12-04T07:02:47;22.07;;;13.30;;
31764;SDS011;18338;53.240;8.798;2023-12-04T07:05:16;20.73;;;13.03;;
31764;SDS011;18338;53.240;8.798;2023-12-04T07:07:43;22.20;;;12.67;;
31764;SDS011;18338;53.240;8.798;2023-12-04T07:10:10;22.97;;;12.63;;
31764;SDS011;18338;53.240;8.798;2023-12-04T07:12:41;23.17;;;13.90;;
31764;SDS011;18338;53.240;8.798;2023-12-04T07:15:09;22.27;;;13.30;;
31764;SDS011;18338;53.240;8.798;2023-12-04T07:17:37;22.80;;;13.07;;
31764;SDS011;18338;53.240;8.798;2023-12-04T07:20:05;22.90;;;12.77;;
31764;SDS011;18338;53.240;8.798;2023-12-04T07:22:32;26.70;;;14.33;;
31764;SDS011;18338;53.240;8.798;2023-12-04T07:25:04;23.27;;;13.30;;
31764;SDS011;18338;53.240;8.798;2023-12-04T07:27:33;23.33;;;13.30;;
31764;SDS011;18338;53.240;8.798;2023-12-04T07:30:01;22.77;;;13.77;;
31764;SDS011;18338;53.240;8.798;2023-12-04T07:32:29;23.23;;;12.97;;
31764;SDS011;18338;53.240;8.798;2023-12-04T07:34:56;24.47;;;13.87;;
31764;SDS011;18338;53.240;8.798;2023-12-04T07:37:23;22.67;;;13.73;;
31764;SDS011;18338;53.240;8.798;2023-12-04T07:39:49;23.83;;;13.67;;
31764;SDS011;18338;53.240;8.798;2023-12-04T07:42:16;23.47;;;13.87;;
31764;SDS011;18338;53.240;8.798;2023-12-04T07:44:43;25.03;;;13.67;;
31764;SDS011;18338;53.240;8.798;2023-12-04T07:47:10;21.17;;;13.37;;
31764;SDS011;18338;53.240;8.798;2023-12-04T07:49:36;22.87;;;13.03;;
31764;SDS011;18338;53.240;8.798;2023-12-04T07:52:03;24.20;;;13.23;;
31764;SDS011;18338;53.240;8.798;2023-12-04T07:54:31;24.40;;;14.53;;
31764;SDS011;18338;53.240;8.798;2023-12-04T07:56:57;22.63;;;13.83;;
31764;SDS011;18338;53.240;8.798;2023-12-04T07:59:24;26.97;;;13.50;;
31764;SDS011;18338;53.240;8.798;2023-12-04T08:01:51;23.67;;;14.17;;
31764;SDS011;18338;53.240;8.798;2023-12-04T08:04:18;24.63;;;14.00;;
31764;SDS011;18338;53.240;8.798;2023-12-04T08:06:45;22.53;;;12.93;;
31764;SDS011;18338;53.240;8.798;2023-12-04T08:09:11;24.07;;;14.57;;
31764;SDS011;18338;53.240;8.798;2023-12-04T08:11:38;23.57;;;13.47;;
31764;SDS011;18338;53.240;8.798;2023-12-04T08:14:05;24.30;;;14.07;;
31764;SDS011;18338;53.240;8.798;2023-12-04T08:16:32;22.47;;;13.77;;
31764;SDS011;18338;53.240;8.798;2023-12-04T08:18:59;21.97;;;14.27;;
31764;SDS011;18338;53.240;8.798;2023-12-04T08:21:26;23.87;;;14.17;;
31764;SDS011;18338;53.240;8.798;2023-12-04T08:23:53;23.30;;;13.93;;
31764;SDS011;18338;53.240;8.798;2023-12-04T08:26:23;19.93;;;12.40;;
31764;SDS011;18338;53.240;8.798;2023-12-04T08:28:51;19.53;;;12.67;;
31764;SDS011;18338;53.240;8.798;2023-12-04T08:31:18;18.30;;;12.20;;
31764;SDS011;18338;53.240;8.798;2023-12-04T08:33:45;17.70;;;11.80;;
31764;SDS011;18338;53.240;8.798;2023-12-04T08:36:12;20.17;;;12.10;;
31764;SDS011;18338;53.240;8.798;2023-12-04T08:38:39;18.07;;;11.73;;
31764;SDS011;18338;53.240;8.798;2023-12-04T08:41:05;19.90;;;11.40;;
31764;SDS011;18338;53.240;8.798;2023-12-04T08:43:33;18.33;;;11.33;;
31764;SDS011;18338;53.240;8.798;2023-12-04T08:45:59;18.23;;;11.73;;
31764;SDS011;18338;53.240;8.798;2023-12-04T08:48:27;16.83;;;11.50;;
31764;SDS011;18338;53.240;8.798;2023-12-04T08:50:54;15.87;;;10.43;;
31764;SDS011;18338;53.240;8.798;2023-12-04T08:53:21;15.57;;;10.73;;
31764;SDS011;18338;53.240;8.798;2023-12-04T08:55:47;14.93;;;10.23;;
31764;SDS011;18338;53.240;8.798;2023-12-04T08:58:14;14.27;;;9.93;;
31764;SDS011;18338;53.240;8.798;2023-12-04T09:00:41;15.33;;;10.47;;
31764;SDS011;18338;53.240;8.798;2023-12-04T09:03:09;14.73;;;10.07;;
31764;SDS011;18338;53.240;8.798;2023-12-04T09:05:47;14.90;;;10.10;;
31764;SDS011;18338;53.240;8.798;2023-12-04T09:08:17;13.67;;;9.30;;
31764;SDS011;18338;53.240;8.798;2023-12-04T09:11:01;15.60;;;10.13;;
31764;SDS011;18338;53.240;8.798;2023-12-04T09:13:47;16.13;;;10.80;;
31764;SDS011;18338;53.240;8.798;2023-12-04T09:16:14;14.77;;;10.27;;
31764;SDS011;18338;53.240;8.798;2023-12-04T09:18:41;14.43;;;9.07;;
31764;SDS011;18338;53.240;8.798;2023-12-04T09:21:08;16.03;;;10.37;;
31764;SDS011;18338;53.240;8.798;2023-12-04T09:23:35;13.90;;;9.27;;
31764;SDS011;18338;53.240;8.798;2023-12-04T09:26:02;13.57;;;9.50;;
31764;SDS011;18338;53.240;8.798;2023-12-04T09:28:29;15.87;;;9.10;;
31764;SDS011;18338;53.240;8.798;2023-12-04T09:30:56;12.60;;;8.90;;
31764;SDS011;18338;53.240;8.798;2023-12-04T09:33:23;12.37;;;8.83;;
31764;SDS011;18338;53.240;8.798;2023-12-04T09:35:49;12.87;;;9.00;;
31764;SDS011;18338;53.240;8.798;2023-12-04T09:38:16;14.13;;;9.53;;
31764;SDS011;18338;53.240;8.798;2023-12-04T09:40:43;11.77;;;8.33;;
31764;SDS011;18338;53.240;8.798;2023-12-04T09:43:10;10.83;;;8.10;;
31764;SDS011;18338;53.240;8.798;2023-12-04T09:45:37;13.67;;;8.90;;
31764;SDS011;18338;53.240;8.798;2023-12-04T09:48:07;12.03;;;8.57;;
31764;SDS011;18338;53.240;8.798;2023-12-04T09:50:36;12.07;;;8.63;;
31764;SDS011;18338;53.240;8.798;2023-12-04T09:53:04;10.97;;;8.47;;
31764;SDS011;18338;53.240;8.798;2023-12-04T09:55:36;11.73;;;8.50;;
31764;SDS011;18338;53.240;8.798;2023-12-04T09:58:03;11.70;;;8.23;;
31764;SDS011;18338;53.240;8.798;2023-12-04T10:00:30;13.03;;;8.90;;
31764;SDS011;18338;53.240;8.798;2023-12-04T10:02:58;12.30;;;8.27;;
31764;SDS011;18338;53.240;8.798;2023-12-04T10:05:28;11.80;;;8.47;;
31764;SDS011;18338;53.240;8.798;2023-12-04T10:07:55;8.93;;;7.13;;
31764;SDS011;18338;53.240;8.798;2023-12-04T10:10:22;11.70;;;8.43;;
31764;SDS011;18338;53.240;8.798;2023-12-04T10:12:48;10.63;;;8.43;;
31764;SDS011;18338;53.240;8.798;2023-12-04T10:15:15;11.20;;;8.33;;
31764;SDS011;18338;53.240;8.798;2023-12-04T10:17:42;11.97;;;7.73;;
31764;SDS011;18338;53.240;8.798;2023-12-04T10:20:13;11.00;;;8.53;;
31764;SDS011;18338;53.240;8.798;2023-12-04T10:22:58;10.33;;;7.90;;
31764;SDS011;18338;53.240;8.798;2023-12-04T10:25:26;9.97;;;7.40;;
31764;SDS011;18338;53.240;8.798;2023-12-04T10:28:06;10.90;;;8.03;;
31764;SDS011;18338;53.240;8.798;2023-12-04T10:30:35;11.93;;;8.87;;
31764;SDS011;18338;53.240;8.798;2023-12-04T10:33:03;10.97;;;8.67;;
31764;SDS011;18338;53.240;8.798;2023-12-04T10:35:32;11.53;;;7.73;;
31764;SDS011;18338;53.240;8.798;2023-12-04T10:38:03;11.23;;;8.23;;
31764;SDS011;18338;53.240;8.798;2023-12-04T10:40:32;12.93;;;8.47;;
31764;SDS011;18338;53.240;8.798;2023-12-04T10:43:19;11.07;;;8.13;;
31764;SDS011;18338;53.240;8.798;2023-12-04T10:45:48;10.67;;;8.27;;
31764;SDS011;18338;53.240;8.798;2023-12-04T10:48:16;12.57;;;8.00;;
31764;SDS011;18338;53.240;8.798;2023-12-04T10:50:45;11.77;;;8.23;;
31764;SDS011;18338;53.240;8.798;2023-12-04T10:53:14;11.43;;;8.63;;
31764;SDS011;18338;53.240;8.798;2023-12-04T10:55:42;11.87;;;8.33;;
31764;SDS011;18338;53.240;8.798;2023-12-04T10:58:14;10.80;;;8.10;;
31764;SDS011;18338;53.240;8.798;2023-12-04T11:00:45;10.73;;;7.83;;
31764;SDS011;18338;53.240;8.798;2023-12-04T11:03:25;10.73;;;8.13;;
31764;SDS011;18338;53.240;8.798;2023-12-04T11:06:00;10.47;;;7.67;;
31764;SDS011;18338;53.240;8.798;2023-12-04T11:08:28;10.30;;;7.67;;
31764;SDS011;18338;53.240;8.798;2023-12-04T11:11:00;13.53;;;7.87;;
31764;SDS011;18338;53.240;8.798;2023-12-04T11:13:37;10.37;;;7.50;;
31764;SDS011;18338;53.240;8.798;2023-12-04T11:18:43;12.17;;;8.17;;
31764;SDS011;18338;53.240;8.798;2023-12-04T11:21:14;12.43;;;8.13;;
31764;SDS011;18338;53.240;8.798;2023-12-04T11:23:43;10.73;;;8.47;;
31764;SDS011;18338;53.240;8.798;2023-12-04T11:26:10;10.03;;;7.80;;
31764;SDS011;18338;53.240;8.798;2023-12-04T11:28:38;11.33;;;8.37;;
31764;SDS011;18338;53.240;8.798;2023-12-04T11:31:05;9.87;;;7.67;;
31764;SDS011;18338;53.240;8.798;2023-12-04T11:33:36;9.43;;;7.27;;
31764;SDS011;18338;53.240;8.798;2023-12-04T11:36:11;9.93;;;7.40;;
31764;SDS011;18338;53.240;8.798;2023-12-04T11:38:46;11.60;;;8.43;;
31764;SDS011;18338;53.240;8.798;2023-12-04T11:41:16;9.87;;;7.57;;
31764;SDS011;18338;53.240;8.798;2023-12-04T11:43:52;9.40;;;7.63;;
31764;SDS011;18338;53.240;8.798;2023-12-04T11:46:22;9.63;;;7.63;;
31764;SDS011;18338;53.240;8.798;2023-12-04T11:48:51;9.30;;;7.10;;
31764;SDS011;18338;53.240;8.798;2023-12-04T11:54:08;9.27;;;7.37;;
31764;SDS011;18338;53.240;8.798;2023-12-04T11:56:36;11.07;;;7.63;;
31764;SDS011;18338;53.240;8.798;2023-12-04T11:59:06;10.53;;;7.57;;
31764;SDS011;18338;53.240;8.798;2023-12-04T12:01:35;9.17;;;7.37;;
31764;SDS011;18338;53.240;8.798;2023-12-04T12:04:06;10.03;;;7.17;;
31764;SDS011;18338;53.240;8.798;2023-12-04T12:06:34;8.85;;;7.30;;
31764;SDS011;18338;53.240;8.798;2023-12-04T12:09:01;9.47;;;7.43;;
31764;SDS011;18338;53.240;8.798;2023-12-04T12:11:28;9.37;;;7.30;;
31764;SDS011;18338;53.240;8.798;2023-12-04T12:13:55;9.40;;;7.23;;
31764;SDS011;18338;53.240;8.798;2023-12-04T12:16:21;9.75;;;7.65;;
31764;SDS011;18338;53.240;8.798;2023-12-04T12:18:48;8.97;;;7.20;;
31764;SDS011;18338;53.240;8.798;2023-12-04T12:21:15;9.30;;;7.10;;
31764;SDS011;18338;53.240;8.798;2023-12-04T12:23:42;9.33;;;7.53;;
31764;SDS011;18338;53.240;8.798;2023-12-04T12:26:10;9.93;;;7.20;;
31764;SDS011;18338;53.240;8.798;2023-12-04T12:28:37;9.60;;;7.47;;
31764;SDS011;18338;53.240;8.798;2023-12-04T12:31:04;9.60;;;7.27;;
31764;SDS011;18338;53.240;8.798;2023-12-04T12:33:31;9.48;;;7.53;;
31764;SDS011;18338;53.240;8.798;2023-12-04T12:35:59;10.02;;;7.30;;
31764;SDS011;18338;53.240;8.798;2023-12-04T12:38:30;10.00;;;7.53;;
31764;SDS011;18338;53.240;8.798;2023-12-04T12:41:01;10.38;;;7.57;;
31764;SDS011;18338;53.240;8.798;2023-12-04T12:43:31;9.88;;;7.05;;
31764;SDS011;18338;53.240;8.798;2023-12-04T12:45:58;9.13;;;7.63;;
31764;SDS011;18338;53.240;8.798;2023-12-04T12:48:26;9.13;;;7.13;;
31764;SDS011;18338;53.240;8.798;2023-12-04T12:50:56;10.23;;;7.07;;
31764;SDS011;18338;53.240;8.798;2023-12-04T12:53:23;9.00;;;7.07;;
31764;SDS011;18338;53.240;8.798;2023-12-04T12:55:49;8.57;;;6.93;;
31764;SDS011;18338;53.240;8.798;2023-12-04T12:58:16;9.47;;;7.47;;
31764;SDS011;18338;53.240;8.798;2023-12-04T13:00:47;9.10;;;6.80;;
31764;SDS011;18338;53.240;8.798;2023-12-04T13:03:17;10.10;;;7.40;;
31764;SDS011;18338;53.240;8.798;2023-12-04T13:05:45;8.77;;;6.82;;
31764;SDS011;18338;53.240;8.798;2023-12-04T13:08:12;9.10;;;7.07;;
31764;SDS011;18338;53.240;8.798;2023-12-04T13:10:40;9.60;;;7.60;;
31764;SDS011;18338;53.240;8.798;2023-12-04T13:13:11;8.03;;;6.90;;
31764;SDS011;18338;53.240;8.798;2023-12-04T13:15:39;8.63;;;7.43;;
31764;SDS011;18338;53.240;8.798;2023-12-04T13:18:08;9.57;;;6.63;;
31764;SDS011;18338;53.240;8.798;2023-12-04T13:20:35;8.20;;;6.55;;
31764;SDS011;18338;53.240;8.798;2023-12-04T13:23:02;9.23;;;6.57;;
31764;SDS011;18338;53.240;8.798;2023-12-04T13:25:29;8.20;;;6.90;;
31764;SDS011;18338;53.240;8.798;2023-12-04T13:27:56;8.63;;;6.47;;
31764;SDS011;18338;53.240;8.798;2023-12-04T13:30:23;7.57;;;6.23;;
31764;SDS011;18338;53.240;8.798;2023-12-04T13:32:50;8.63;;;6.47;;
31764;SDS011;18338;53.240;8.798;2023-12-04T13:35:17;8.23;;;6.57;;
31764;SDS011;18338;53.240;8.798;2023-12-04T13:37:44;10.23;;;6.97;;
31764;SDS011;18338;53.240;8.798;2023-12-04T13:40:11;9.70;;;6.67;;
31764;SDS011;18338;53.240;8.798;2023-12-04T13:42:42;8.23;;;6.60;;
31764;SDS011;18338;53.240;8.798;2023-12-04T13:45:27;9.37;;;7.50;;
31764;SDS011;18338;53.240;8.798;2023-12-04T13:47:54;8.90;;;6.90;;
31764;SDS011;18338;53.240;8.798;2023-12-04T13:50:21;9.33;;;6.90;;
31764;SDS011;18338;53.240;8.798;2023-12-04T13:52:47;7.67;;;6.27;;
31764;SDS011;18338;53.240;8.798;2023-12-04T13:55:22;9.40;;;6.93;;
31764;SDS011;18338;53.240;8.798;2023-12-04T13:58:10;10.13;;;7.30;;
31764;SDS011;18338;53.240;8.798;2023-12-04T14:00:57;9.50;;;7.40;;
31764;SDS011;18338;53.240;8.798;2023-12-04T14:03:25;9.33;;;7.50;;
31764;SDS011;18338;53.240;8.798;2023-12-04T14:05:55;9.80;;;7.00;;
31764;SDS011;18338;53.240;8.798;2023-12-04T14:08:22;8.77;;;6.67;;
31764;SDS011;18338;53.240;8.798;2023-12-04T14:10:50;9.43;;;6.73;;
31764;SDS011;18338;53.240;8.798;2023-12-04T14:13:17;9.13;;;6.50;;
31764;SDS011;18338;53.240;8.798;2023-12-04T14:15:44;9.17;;;6.87;;
31764;SDS011;18338;53.240;8.798;2023-12-04T14:18:11;9.20;;;6.57;;
31764;SDS011;18338;53.240;8.798;2023-12-04T14:20:38;8.53;;;6.60;;
31764;SDS011;18338;53.240;8.798;2023-12-04T14:23:05;8.33;;;6.60;;
31764;SDS011;18338;53.240;8.798;2023-12-04T14:25:31;10.53;;;6.90;;
31764;SDS011;18338;53.240;8.798;2023-12-04T14:27:58;8.23;;;6.63;;
31764;SDS011;18338;53.240;8.798;2023-12-04T14:30:25;8.40;;;6.73;;
31764;SDS011;18338;53.240;8.798;2023-12-04T14:32:53;8.97;;;7.00;;
31764;SDS011;18338;53.240;8.798;2023-12-04T14:35:21;9.53;;;6.90;;
31764;SDS011;18338;53.240;8.798;2023-12-04T14:37:47;8.57;;;6.63;;